CYYQ

Details ICAO CYYQ (YYQ)
Name CHURCHILL
Region Canada
Timezone America/Winnipeg (UTC-6.0)
Plans Departing 39
Arriving 50
Stats Elevation 94 ft / 29 m (AMSL)
Location 58.743971° -94.063864°
Runways 2
Magnetic Variation 2.069° W
Sunrise 2017-12-12 15:00:35 UTC / 2017-12-12 09:00:35 Local
Sunset 2017-12-12 21:22:29 UTC / 2017-12-12 15:22:29 Local
Advertisement - Login to hide

Runways

ID Width Length Bearing (true) Bearing (mag) Surface Threshold Offset Overrun Length
07 100 ft / 30 m 3,988 ft / 1,215 m 70.97° 73.04° Gravel 0 ft / 0 m 0 ft / 0 m
15 160 ft / 49 m 9,178 ft / 2,797 m 152.64° 154.71° Asphalt 0 ft / 0 m 0 ft / 0 m
25 100 ft / 30 m 3,988 ft / 1,215 m 250.99° 253.06° Gravel 0 ft / 0 m 0 ft / 0 m
33 160 ft / 49 m 9,178 ft / 2,797 m 332.66° 334.73° Asphalt 0 ft / 0 m 0 ft / 0 m

Map

Weather


0- 5 10 15 20 25 30 35+ Temperature / ° C

Clouds and Precipitation
Forecast for 2017-12-13 00:00 UTC. Updated an hour ago

Ground ~20,000 ft ~40,000 ft Winds

METAR

CYYQ 130000Z 20004KT 15SM FEW200 M28/M30 A2990 RMK CI1 SLP132

TAF

TAF CYYQ 122344Z 1300/1324 VRB03KT P6SM FEW250 FM130900 VRB03KT P6SM FEW015 SCT150 FM132100 33008KT P6SM -SN BKN015 BKN210 RMK NXT FCST BY 130600Z

Frequencies

Tower 126.90 MHz INTL AIR
Tower 122.20 MHz MF CHURCHILL RDO
Warning: Do not use this data for real-world aviation or navigation. No guarantee of current accuracy is given.